createdAt,value
2018-06-09T00:00:51.242Z,11.97
2018-06-09T00:03:20.259Z,11.43
2018-06-09T00:05:49.247Z,11.37
2018-06-09T00:08:18.186Z,11.67
2018-06-09T00:10:47.271Z,11.60
2018-06-09T00:13:16.270Z,11.97
2018-06-09T00:15:45.243Z,11.70
2018-06-09T00:18:14.247Z,11.20
2018-06-09T00:20:43.235Z,11.73
2018-06-09T00:23:12.207Z,12.20
2018-06-09T00:25:41.198Z,11.47
2018-06-09T00:28:10.155Z,12.13
2018-06-09T00:30:39.138Z,11.83
2018-06-09T00:33:08.190Z,12.97
2018-06-09T00:35:37.211Z,12.40
2018-06-09T00:38:06.186Z,11.77
2018-06-09T00:40:35.190Z,11.53
2018-06-09T00:43:04.175Z,11.47
2018-06-09T00:45:33.187Z,11.40
2018-06-09T00:48:02.150Z,12.07
2018-06-09T00:50:31.159Z,11.90
2018-06-09T00:53:00.198Z,12.07
2018-06-09T00:55:29.200Z,12.23
2018-06-09T00:57:58.142Z,12.60
2018-06-09T01:00:27.191Z,12.83
2018-06-09T01:02:56.146Z,12.83
2018-06-09T01:05:25.171Z,12.93
2018-06-09T01:07:54.155Z,11.33
2018-06-09T01:10:23.140Z,12.10
2018-06-09T01:12:52.110Z,11.77
2018-06-09T01:15:21.134Z,12.03
2018-06-09T01:17:50.114Z,12.87
2018-06-09T01:20:19.182Z,12.40
2018-06-09T01:22:50.107Z,13.33
2018-06-09T01:25:19.132Z,11.80
2018-06-09T01:27:48.078Z,12.17
2018-06-09T01:30:17.071Z,13.23
2018-06-09T01:32:46.030Z,11.47
2018-06-09T01:35:15.023Z,13.30
2018-06-09T01:37:44.011Z,13.20
2018-06-09T01:40:13.016Z,12.30
2018-06-09T01:42:41.975Z,13.07
2018-06-09T01:45:10.987Z,12.90
2018-06-09T01:47:40.181Z,13.03
2018-06-09T01:50:09.464Z,12.87
2018-06-09T01:52:39.171Z,12.53
2018-06-09T01:55:08.419Z,13.47
2018-06-09T01:57:37.386Z,12.90
2018-06-09T02:00:06.402Z,13.53
2018-06-09T02:02:35.385Z,13.10
2018-06-09T02:05:04.439Z,13.43
2018-06-09T02:07:33.642Z,12.53
2018-06-09T02:10:02.878Z,13.17
2018-06-09T02:12:31.878Z,12.83
2018-06-09T02:15:00.878Z,13.50
2018-06-09T02:17:29.831Z,13.00
2018-06-09T02:19:58.826Z,12.97
2018-06-09T02:22:27.814Z,12.50
2018-06-09T02:24:57.125Z,12.87
2018-06-09T02:27:26.450Z,13.27
2018-06-09T02:29:55.442Z,12.37
2018-06-09T02:32:24.434Z,12.77
2018-06-09T02:34:53.776Z,12.83
2018-06-09T02:37:22.823Z,13.80
2018-06-09T02:39:52.078Z,14.23
2018-06-09T02:42:21.260Z,13.27
2018-06-09T02:44:50.275Z,13.33
2018-06-09T02:47:19.239Z,13.30
2018-06-09T02:49:48.226Z,14.07
2018-06-09T02:52:17.312Z,14.57
2018-06-09T02:54:50.742Z,15.50
2018-06-09T02:57:20.491Z,14.57
2018-06-09T02:59:49.473Z,15.10
2018-06-09T03:02:18.520Z,15.17
2018-06-09T03:04:47.494Z,15.00
2018-06-09T03:07:16.481Z,15.40
2018-06-09T03:09:45.458Z,15.37
2018-06-09T03:12:14.455Z,15.47
2018-06-09T03:14:43.400Z,15.60
2018-06-09T03:17:12.426Z,15.60
2018-06-09T03:19:41.370Z,17.03
2018-06-09T03:22:10.519Z,16.47
2018-06-09T03:24:39.475Z,15.83
2018-06-09T03:27:08.513Z,16.47
2018-06-09T03:29:37.477Z,16.60
2018-06-09T03:32:06.479Z,16.87
2018-06-09T03:34:36.691Z,16.20
2018-06-09T03:37:05.739Z,16.77
2018-06-09T03:39:34.695Z,16.47
2018-06-09T03:42:03.699Z,17.20
2018-06-09T03:44:32.651Z,16.63
2018-06-09T03:47:01.646Z,15.70
2018-06-09T03:49:30.605Z,16.00
2018-06-09T03:51:59.582Z,15.57
2018-06-09T03:54:28.569Z,16.13
2018-06-09T03:56:57.574Z,15.70
2018-06-09T03:59:26.566Z,16.63
2018-06-09T04:01:55.591Z,15.43
2018-06-09T04:04:24.550Z,17.33
2018-06-09T04:06:53.543Z,16.47
2018-06-09T04:09:22.503Z,15.47
2018-06-09T04:11:51.526Z,15.37
2018-06-09T04:14:20.638Z,17.27
2018-06-09T04:25:28.846Z,17.40
2018-06-09T04:27:57.894Z,19.93
2018-06-09T04:30:26.831Z,21.30
2018-06-09T04:32:55.907Z,21.70
2018-06-09T04:35:24.879Z,21.07
2018-06-09T04:37:53.910Z,21.00
2018-06-09T04:40:22.863Z,21.57
2018-06-09T04:42:51.865Z,21.43
2018-06-09T04:45:20.834Z,20.23
2018-06-09T04:47:49.823Z,20.60
2018-06-09T04:50:18.810Z,21.10
2018-06-09T04:52:47.815Z,20.33
2018-06-09T04:55:16.778Z,20.07
2018-06-09T04:57:45.770Z,20.43
2018-06-09T05:00:14.809Z,20.10
2018-06-09T05:02:43.847Z,20.17
2018-06-09T05:05:12.803Z,18.77
2018-06-09T05:07:41.790Z,19.43
2018-06-09T05:10:10.771Z,19.90
2018-06-09T05:12:39.795Z,19.27
2018-06-09T05:15:08.759Z,19.47
2018-06-09T05:17:38.389Z,18.53
2018-06-09T05:20:07.390Z,17.93
2018-06-09T05:22:36.745Z,18.07
2018-06-09T05:25:05.834Z,17.27
2018-06-09T05:27:35.585Z,18.53
2018-06-09T05:30:05.050Z,17.53
2018-06-09T05:32:34.514Z,18.10
2018-06-09T05:35:03.502Z,17.57
2018-06-09T05:37:35.222Z,17.63
2018-06-09T05:40:04.346Z,17.03
2018-06-09T05:42:33.562Z,17.17
2018-06-09T05:45:02.596Z,16.50
2018-06-09T05:47:52.461Z,16.20
2018-06-09T05:50:22.299Z,16.73
2018-06-09T05:52:51.551Z,15.63
2018-06-09T05:55:20.845Z,16.40
2018-06-09T05:57:50.019Z,15.10
2018-06-09T06:00:19.634Z,13.97
2018-06-09T06:02:49.583Z,16.00
2018-06-09T06:05:18.093Z,15.10
2018-06-09T06:07:47.093Z,15.37
2018-06-09T06:10:16.104Z,15.87
2018-06-09T06:12:45.050Z,16.17
2018-06-09T06:15:14.030Z,14.50
2018-06-09T06:17:43.051Z,14.70
2018-06-09T06:20:12.423Z,13.83
2018-06-09T06:22:41.418Z,14.47
2018-06-09T06:25:10.427Z,14.00
2018-06-09T06:27:39.910Z,14.20
2018-06-09T06:30:08.927Z,13.50
2018-06-09T06:32:38.066Z,13.73
2018-06-09T06:35:08.407Z,13.80
2018-06-09T06:37:38.413Z,15.17
2018-06-09T06:40:07.401Z,13.17
2018-06-09T06:42:36.499Z,12.20
2018-06-09T06:45:05.885Z,12.70
2018-06-09T06:47:34.795Z,12.97
2018-06-09T06:50:03.870Z,11.40
2018-06-09T06:52:32.894Z,12.03
2018-06-09T06:55:01.936Z,12.43
2018-06-09T06:57:31.474Z,11.70
2018-06-09T07:00:00.727Z,11.40
2018-06-09T07:02:29.942Z,11.80
2018-06-09T07:04:59.233Z,11.87
2018-06-09T07:07:28.512Z,10.70
2018-06-09T07:09:57.816Z,11.33
2018-06-09T07:12:27.085Z,11.67
2018-06-09T07:15:08.727Z,11.90
2018-06-09T07:17:37.943Z,12.70
2018-06-09T07:20:07.192Z,12.47
2018-06-09T07:22:36.370Z,11.70
2018-06-09T07:25:05.667Z,11.90
2018-06-09T07:27:35.256Z,13.17
2018-06-09T07:30:04.953Z,12.40
2018-06-09T07:32:33.978Z,11.43
2018-06-09T07:35:02.951Z,10.70
2018-06-09T07:37:32.031Z,10.83
2018-06-09T07:40:01.284Z,11.87
2018-06-09T07:42:30.898Z,11.90
2018-06-09T07:45:00.482Z,11.30
2018-06-09T07:47:29.531Z,11.33
2018-06-09T07:49:59.403Z,10.80
2018-06-09T07:52:28.398Z,11.20
2018-06-09T07:54:57.542Z,11.73
2018-06-09T07:57:26.727Z,10.70
2018-06-09T07:59:55.718Z,11.83
2018-06-09T08:02:24.755Z,11.97
2018-06-09T08:04:53.731Z,9.93
2018-06-09T08:07:22.955Z,10.23
2018-06-09T08:09:52.425Z,10.87
2018-06-09T08:12:21.520Z,10.70
2018-06-09T08:14:51.654Z,10.27
2018-06-09T08:17:20.610Z,10.53
2018-06-09T08:19:49.615Z,9.87
2018-06-09T08:22:18.620Z,9.67
2018-06-09T08:30:37.386Z,9.33
2018-06-09T08:33:06.402Z,9.17
2018-06-09T08:35:35.357Z,9.83
2018-06-09T08:41:22.153Z,9.10
2018-06-09T08:52:33.958Z,9.93
2018-06-09T08:55:02.964Z,10.07
2018-06-09T08:57:31.951Z,9.80
2018-06-09T09:00:01.059Z,9.27
2018-06-09T09:02:30.111Z,10.03
2018-06-09T09:04:59.107Z,10.23
2018-06-09T09:07:28.123Z,10.13
2018-06-09T09:09:57.126Z,9.57
2018-06-09T09:12:26.224Z,10.37
2018-06-09T09:14:55.645Z,9.63
2018-06-09T09:17:24.691Z,9.67
2018-06-09T09:19:53.710Z,10.30
2018-06-09T09:22:22.711Z,9.93
2018-06-09T09:24:51.743Z,9.70
2018-06-09T09:27:20.802Z,10.23
2018-06-09T09:29:49.809Z,9.70
2018-06-09T09:32:18.818Z,9.80
2018-06-09T09:34:47.836Z,9.77
2018-06-09T09:37:16.802Z,9.40
2018-06-09T09:39:45.795Z,9.70
2018-06-09T09:42:14.783Z,9.37
2018-06-09T09:44:44.990Z,8.80
2018-06-09T09:47:14.067Z,9.80
2018-06-09T09:49:44.315Z,9.67
2018-06-09T09:58:09.019Z,9.20
2018-06-09T10:00:41.787Z,9.30
2018-06-09T10:03:11.035Z,8.63
2018-06-09T10:05:40.046Z,8.97
2018-06-09T10:08:09.032Z,9.17
2018-06-09T10:10:38.076Z,8.37
2018-06-09T10:13:07.122Z,9.07
2018-06-09T10:15:36.175Z,8.50
2018-06-09T10:18:05.431Z,8.43
2018-06-09T10:20:34.422Z,8.57
2018-06-09T10:23:03.786Z,7.20
2018-06-09T10:25:33.007Z,7.60
2018-06-09T10:28:02.170Z,7.47
2018-06-09T10:30:31.146Z,7.67
2018-06-09T10:33:00.324Z,9.10
2018-06-09T10:35:29.607Z,7.87
2018-06-09T10:37:58.635Z,7.60
2018-06-09T10:40:27.591Z,8.40
2018-06-09T10:42:56.591Z,8.53
2018-06-09T10:45:25.617Z,8.90
2018-06-09T10:47:55.479Z,8.50
2018-06-09T10:50:31.186Z,8.20
2018-06-09T10:53:01.376Z,7.67
2018-06-09T10:55:30.370Z,7.83
2018-06-09T10:58:00.910Z,7.60
2018-06-09T11:06:26.607Z,7.07
2018-06-09T11:08:55.594Z,6.33
2018-06-09T11:11:24.675Z,6.80
2018-06-09T11:13:55.534Z,6.70
2018-06-09T11:16:24.524Z,6.70
2018-06-09T11:18:53.491Z,6.70
2018-06-09T11:21:22.487Z,6.78
2018-06-09T11:23:51.506Z,5.78
2018-06-09T11:26:20.461Z,6.58
2018-06-09T11:28:49.446Z,6.50
2018-06-09T11:31:18.446Z,6.78
2018-06-09T11:33:47.414Z,7.05
2018-06-09T11:36:19.329Z,7.12
2018-06-09T11:38:48.592Z,6.50
2018-06-09T11:41:17.654Z,6.72
2018-06-09T11:43:46.662Z,6.28
2018-06-09T11:46:15.653Z,6.40
2018-06-09T11:48:44.636Z,5.95
2018-06-09T11:51:13.636Z,6.25
2018-06-09T11:53:42.582Z,5.75
2018-06-09T11:56:11.590Z,5.85
2018-06-09T11:58:50.701Z,5.90
2018-06-09T12:01:20.272Z,5.92
2018-06-09T12:03:50.554Z,6.30
2018-06-09T12:06:19.579Z,6.47
2018-06-09T12:08:48.607Z,5.83
2018-06-09T12:11:17.554Z,6.47
2018-06-09T12:13:46.571Z,6.37
2018-06-09T12:16:15.553Z,5.80
2018-06-09T12:18:44.516Z,6.42
2018-06-09T12:21:13.516Z,5.85
2018-06-09T12:23:42.535Z,5.80
2018-06-09T12:26:11.508Z,5.70
2018-06-09T12:28:40.530Z,6.25
2018-06-09T12:31:09.514Z,5.87
2018-06-09T12:33:38.490Z,5.53
2018-06-09T12:36:07.480Z,6.15
2018-06-09T12:38:36.474Z,5.97
2018-06-09T12:41:06.245Z,6.42
2018-06-09T12:43:35.235Z,5.90
2018-06-09T12:46:04.253Z,6.25
2018-06-09T12:48:33.348Z,5.85
2018-06-09T12:51:02.343Z,6.47
2018-06-09T12:53:31.362Z,6.08
2018-06-09T12:56:00.351Z,6.15
2018-06-09T12:58:29.431Z,6.22
2018-06-09T13:00:58.727Z,6.03
2018-06-09T13:03:27.989Z,5.92
2018-06-09T13:05:57.996Z,6.15
2018-06-09T13:08:27.743Z,5.65
2018-06-09T13:10:57.382Z,6.12
2018-06-09T13:13:26.440Z,6.37
2018-06-09T13:15:55.606Z,5.65
2018-06-09T13:18:24.599Z,6.08
2018-06-09T13:20:53.583Z,6.17
2018-06-09T13:23:22.574Z,6.35
2018-06-09T13:25:53.471Z,6.28
2018-06-09T13:28:22.480Z,5.95
2018-06-09T13:30:51.684Z,5.47
2018-06-09T13:33:20.948Z,5.80
2018-06-09T13:35:50.016Z,5.83
2018-06-09T13:38:19.294Z,5.47
2018-06-09T13:43:45.625Z,4.40
2018-06-09T13:46:14.763Z,5.08
2018-06-09T13:48:44.086Z,5.12
2018-06-09T13:51:13.118Z,4.53
2018-06-09T13:53:42.115Z,4.97
2018-06-09T13:56:11.191Z,4.05
2018-06-09T13:58:41.366Z,3.43
2018-06-09T14:01:10.839Z,3.13
2018-06-09T14:03:39.815Z,3.23
2018-06-09T14:06:08.814Z,3.47
2018-06-09T14:08:38.523Z,3.40
2018-06-09T14:11:08.599Z,4.23
2018-06-09T14:13:39.118Z,4.13
2018-06-09T14:16:08.113Z,5.20
2018-06-09T14:18:37.111Z,5.83
2018-06-09T14:21:06.078Z,6.07
2018-06-09T14:23:35.247Z,6.70
2018-06-09T14:26:13.871Z,7.03
2018-06-09T14:28:42.966Z,6.93
2018-06-09T14:31:12.003Z,8.00
2018-06-09T14:33:41.142Z,8.43
2018-06-09T14:36:10.124Z,7.90
2018-06-09T14:38:39.467Z,8.60
2018-06-09T14:41:08.446Z,8.13
2018-06-09T14:43:37.427Z,8.37
2018-06-09T14:46:06.419Z,8.50
2018-06-09T14:48:35.401Z,8.87
2018-06-09T14:51:04.390Z,8.03
2018-06-09T14:53:33.390Z,8.43
2018-06-09T14:56:02.344Z,8.27
2018-06-09T14:58:34.824Z,8.23
2018-06-09T15:01:04.194Z,8.60
2018-06-09T15:03:33.155Z,8.77
2018-06-09T15:06:02.174Z,8.70
2018-06-09T15:08:31.155Z,8.80
2018-06-09T15:11:00.098Z,7.87
2018-06-09T15:13:29.118Z,7.30
2018-06-09T15:16:18.682Z,7.37
2018-06-09T15:18:48.159Z,7.33
2018-06-09T15:21:17.162Z,7.27
2018-06-09T15:23:46.368Z,6.90
2018-06-09T15:26:15.411Z,6.93
2018-06-09T15:28:44.396Z,7.27
2018-06-09T15:31:13.342Z,6.77
2018-06-09T15:33:42.348Z,6.87
2018-06-09T15:36:11.391Z,7.10
2018-06-09T15:38:40.351Z,6.70
2018-06-09T15:41:09.387Z,6.77
2018-06-09T15:43:38.486Z,5.87
2018-06-09T15:46:07.651Z,7.30
2018-06-09T15:48:37.172Z,6.90
2018-06-09T15:51:06.263Z,7.60
2018-06-09T15:53:35.240Z,6.93
2018-06-09T15:56:04.906Z,7.33
2018-06-09T15:58:34.564Z,7.37
2018-06-09T16:01:03.535Z,8.10
2018-06-09T16:03:32.527Z,8.00
2018-06-09T16:06:01.519Z,7.77
2018-06-09T16:08:30.475Z,10.87
2018-06-09T16:11:09.198Z,8.60
2018-06-09T16:16:37.071Z,8.87
2018-06-09T16:19:06.106Z,8.10
2018-06-09T16:21:35.086Z,8.70
2018-06-09T16:24:04.264Z,8.13
2018-06-09T16:26:33.548Z,7.53
2018-06-09T16:29:02.803Z,7.70
2018-06-09T16:31:32.041Z,7.93
2018-06-09T16:36:57.363Z,8.77
2018-06-09T16:39:26.672Z,8.13
2018-06-09T16:41:56.030Z,8.00
2018-06-09T16:44:25.020Z,7.90
2018-06-09T16:46:54.007Z,8.37
2018-06-09T16:49:23.016Z,7.97
2018-06-09T16:51:52.063Z,7.70
2018-06-09T16:54:21.191Z,7.93
2018-06-09T16:56:50.155Z,7.90
2018-06-09T16:59:19.166Z,8.60
2018-06-09T17:01:48.193Z,7.90
2018-06-09T17:04:17.400Z,8.63
2018-06-09T17:06:46.438Z,8.33
2018-06-09T17:09:15.597Z,7.83
2018-06-09T17:11:44.818Z,7.67
2018-06-09T17:14:13.997Z,7.70
2018-06-09T17:16:43.330Z,7.00
2018-06-09T17:19:12.295Z,7.67
2018-06-09T17:21:41.298Z,7.20
2018-06-09T17:24:10.270Z,6.90
2018-06-09T17:26:39.262Z,7.30
2018-06-09T17:29:09.375Z,7.33
2018-06-09T17:31:38.378Z,7.90
2018-06-09T17:34:07.330Z,7.53
2018-06-09T17:36:36.495Z,6.37
2018-06-09T17:39:07.853Z,7.40
2018-06-09T17:41:37.870Z,6.93
2018-06-09T17:44:06.837Z,7.23
2018-06-09T17:46:35.815Z,7.17
2018-06-09T17:49:04.995Z,6.57
2018-06-09T17:51:33.991Z,6.60
2018-06-09T17:54:02.951Z,6.60
2018-06-09T17:56:31.958Z,6.30
2018-06-09T18:04:48.836Z,7.13
2018-06-09T18:07:24.833Z,7.17
2018-06-09T18:09:53.822Z,6.27
2018-06-09T18:12:22.840Z,6.93
2018-06-09T18:14:51.806Z,6.83
2018-06-09T18:17:20.926Z,6.70
2018-06-09T18:19:49.878Z,7.33
2018-06-09T18:22:22.434Z,7.03
2018-06-09T18:24:51.045Z,6.90
2018-06-09T18:27:20.019Z,6.90
2018-06-09T18:29:49.014Z,7.97
2018-06-09T18:32:18.208Z,9.17
2018-06-09T18:34:47.422Z,7.20
2018-06-09T18:37:16.649Z,8.07
2018-06-09T18:39:45.932Z,9.10
2018-06-09T18:42:15.087Z,7.37
2018-06-09T18:44:44.436Z,7.23
2018-06-09T18:47:13.683Z,7.97
2018-06-09T18:49:42.893Z,6.77
2018-06-09T18:52:12.123Z,7.33
2018-06-09T18:54:41.114Z,6.90
2018-06-09T18:57:10.108Z,6.70
2018-06-09T18:59:39.102Z,6.43
2018-06-09T19:08:02.183Z,6.83
2018-06-09T19:10:31.185Z,6.87
2018-06-09T19:13:00.202Z,6.10
2018-06-09T19:15:29.462Z,6.43
2018-06-09T19:18:00.011Z,6.20
2018-06-09T19:20:28.563Z,6.73
2018-06-09T19:23:01.554Z,6.57
2018-06-09T19:25:30.563Z,6.77
2018-06-09T19:27:59.522Z,6.00
2018-06-09T19:30:28.545Z,6.07
2018-06-09T19:32:57.538Z,6.07
2018-06-09T19:35:26.524Z,6.63
2018-06-09T19:37:55.530Z,6.47
2018-06-09T19:40:24.523Z,6.53
2018-06-09T19:42:53.483Z,6.50
2018-06-09T19:45:22.475Z,6.13
2018-06-09T19:47:51.458Z,6.33
2018-06-09T19:50:19.953Z,7.00
2018-06-09T19:52:48.939Z,7.13
2018-06-09T19:55:17.982Z,8.23
2018-06-09T19:57:46.939Z,7.43
2018-06-09T20:00:15.926Z,7.83
2018-06-09T20:02:44.901Z,7.57
2018-06-09T20:05:13.851Z,8.60
2018-06-09T20:07:42.856Z,8.70
2018-06-09T20:10:11.869Z,7.00
2018-06-09T20:12:40.825Z,7.33
2018-06-09T20:15:09.846Z,8.67
2018-06-09T20:17:38.883Z,9.47
2018-06-09T20:20:08.750Z,8.97
2018-06-09T20:22:37.730Z,9.07
2018-06-09T20:25:06.723Z,8.83
2018-06-09T20:36:15.425Z,8.00
2018-06-09T20:38:44.658Z,9.13
2018-06-09T20:41:14.032Z,9.17
2018-06-09T20:43:43.496Z,8.70
2018-06-09T20:46:12.801Z,9.40
2018-06-09T20:48:41.818Z,8.87
2018-06-09T20:51:10.900Z,9.43
2018-06-09T20:53:40.148Z,9.37
2018-06-09T20:56:09.203Z,9.53
2018-06-09T20:58:39.262Z,9.87
2018-06-09T21:01:08.441Z,9.67
2018-06-09T21:03:37.699Z,10.10
2018-06-09T21:06:06.934Z,10.47
2018-06-09T21:08:37.108Z,10.13
2018-06-09T21:11:06.114Z,10.33
2018-06-09T21:13:35.085Z,9.97
2018-06-09T21:16:04.157Z,9.37
2018-06-09T21:18:33.191Z,9.10
2018-06-09T21:21:02.159Z,9.17
2018-06-09T21:23:31.154Z,8.87
2018-06-09T21:26:00.141Z,9.70
2018-06-09T21:28:34.443Z,9.73
2018-06-09T21:31:08.769Z,10.20
2018-06-09T21:33:54.232Z,10.57
2018-06-09T21:36:28.230Z,10.00
2018-06-09T21:39:01.179Z,9.97
2018-06-09T21:41:35.455Z,10.80
2018-06-09T21:44:09.566Z,10.43
2018-06-09T21:46:43.711Z,11.17
2018-06-09T21:49:12.711Z,10.47
2018-06-09T21:51:41.730Z,11.17
2018-06-09T21:54:10.687Z,10.57
2018-06-09T21:56:39.698Z,10.37
2018-06-09T21:59:08.706Z,9.80
2018-06-09T22:01:38.063Z,10.73
2018-06-09T22:04:07.107Z,11.47
2018-06-09T22:06:36.262Z,11.40
2018-06-09T22:09:08.126Z,10.27
2018-06-09T22:11:38.328Z,10.30
2018-06-09T22:14:07.420Z,10.40
2018-06-09T22:16:36.486Z,11.10
2018-06-09T22:19:05.546Z,11.83
2018-06-09T22:21:34.579Z,11.37
2018-06-09T22:24:03.589Z,12.30
2018-06-09T22:26:32.554Z,11.47
2018-06-09T22:29:01.652Z,11.17
2018-06-09T22:31:30.643Z,11.23
2018-06-09T22:33:59.627Z,11.73
2018-06-09T22:36:28.638Z,10.80
2018-06-09T22:38:57.646Z,10.93
2018-06-09T22:41:26.602Z,11.17
2018-06-09T22:43:55.619Z,11.13
2018-06-09T22:46:24.819Z,11.30
2018-06-09T22:48:54.012Z,10.80
2018-06-09T22:51:23.482Z,11.03
2018-06-09T22:53:52.768Z,11.23
2018-06-09T22:56:21.989Z,10.57
2018-06-09T22:58:51.468Z,10.57
2018-06-09T23:01:20.555Z,10.83
2018-06-09T23:03:49.510Z,10.17
2018-06-09T23:06:18.495Z,9.60
2018-06-09T23:08:47.485Z,9.80
2018-06-09T23:11:16.443Z,11.03
2018-06-09T23:28:11.215Z,12.10
2018-06-09T23:30:40.269Z,11.93
2018-06-09T23:33:09.250Z,11.63
2018-06-09T23:35:38.206Z,11.63
2018-06-09T23:38:07.362Z,12.63
2018-06-09T23:40:36.346Z,12.63
2018-06-09T23:43:05.331Z,13.20
2018-06-09T23:45:34.344Z,12.37
2018-06-09T23:48:03.488Z,13.13
2018-06-09T23:50:32.687Z,12.83
2018-06-09T23:53:01.865Z,12.40
2018-06-09T23:55:31.087Z,12.10
2018-06-09T23:58:00.339Z,12.20
